4I3

Knox County Airport

Mount Vernon, Ohio, USA
METAR K4I3 251637Z AUTO 18004KT 10SM OVC008 21/21 A3009 RMK AO2 LTG DSNT NE
Observed Flight Rules
Sep-25 @ 16:37 UTC (27 minutes ago) Instrument Flight Rules
Wind Visibility Clouds
180° at 4 knots 10 miles
  • Overcast at 800' AGL
Temperatures Readings
Current 21°C / 70°F
Dewpoint 21°C / 70°F
Humidity 100%
Altimeter 30.09" Hg
Pressure 1019 hPa
Elevation 363
METAR K4I3 251637Z AUTO 18004KT 10SM OVC008 21/21 A3009 RMK AO2 LTG DSNT NE
Observed Flight Rules
Sep-25 @ 16:37 UTC
(27 minutes ago)
IFR
Wind Visibility
180° at 4 knots 10 miles
Clouds
  • Overcast at 800' AGL
Temperature Dewpoint
21°C / 70°F 21°C / 70°F
Humidity Altimeter Pressure
100% 30.09" Hg 1019 hPa